createdAt,value
2018-08-06T00:00:31.201Z,73.25
2018-08-06T00:02:59.662Z,73.36
2018-08-06T00:05:28.050Z,73.62
2018-08-06T00:07:56.421Z,73.97
2018-08-06T00:10:26.105Z,74.41
2018-08-06T00:12:54.675Z,74.24
2018-08-06T00:15:23.039Z,73.91
2018-08-06T00:17:51.551Z,74.12
2018-08-06T00:20:19.946Z,74.34
2018-08-06T00:22:48.357Z,74.56
2018-08-06T00:25:17.564Z,75.11
2018-08-06T00:27:46.542Z,75.27
2018-08-06T00:30:16.758Z,74.85
2018-08-06T00:32:46.061Z,75.67
2018-08-06T00:35:15.002Z,75.89
2018-08-06T00:37:43.459Z,76.70
2018-08-06T00:40:13.456Z,76.56
2018-08-06T00:42:42.534Z,76.96
2018-08-06T00:45:13.139Z,77.05
2018-08-06T00:47:41.732Z,76.30
2018-08-06T00:50:10.670Z,76.71
2018-08-06T00:52:40.557Z,76.68
2018-08-06T00:55:13.247Z,77.06
2018-08-06T00:57:41.712Z,78.11
2018-08-06T01:00:13.088Z,77.69
2018-08-06T01:02:41.639Z,77.41
2018-08-06T01:05:11.351Z,77.39
2018-08-06T01:07:40.431Z,77.59
2018-08-06T01:10:12.103Z,77.89
2018-08-06T01:12:41.113Z,78.09
2018-08-06T01:15:11.175Z,77.96
2018-08-06T01:17:39.582Z,78.41
2018-08-06T01:20:09.667Z,78.68
2018-08-06T01:22:38.316Z,78.03
2018-08-06T01:25:06.770Z,78.76
2018-08-06T01:27:35.717Z,79.03
2018-08-06T01:30:04.390Z,79.43
2018-08-06T01:32:32.739Z,79.15
2018-08-06T01:35:01.045Z,79.29
2018-08-06T01:37:29.414Z,79.79
2018-08-06T01:39:57.761Z,79.84
2018-08-06T01:42:26.140Z,79.67
2018-08-06T01:44:54.554Z,79.48
2018-08-06T01:47:22.997Z,80.08
2018-08-06T01:49:51.506Z,80.37
2018-08-06T01:52:19.834Z,79.68
2018-08-06T01:54:48.207Z,80.37
2018-08-06T01:57:16.568Z,80.87
2018-08-06T01:59:44.900Z,80.52
2018-08-06T02:02:13.283Z,81.21
2018-08-06T02:04:41.697Z,81.53
2018-08-06T02:07:10.156Z,82.40
2018-08-06T02:09:38.858Z,82.59
2018-08-06T02:12:08.390Z,81.88
2018-08-06T02:14:36.950Z,82.94
2018-08-06T02:17:06.430Z,82.72
2018-08-06T02:19:34.906Z,83.36
2018-08-06T02:22:03.255Z,83.71
2018-08-06T02:24:31.666Z,83.19
2018-08-06T02:27:00.116Z,82.93
2018-08-06T02:29:28.509Z,83.02
2018-08-06T02:31:58.014Z,83.83
2018-08-06T02:34:26.410Z,83.87
2018-08-06T02:36:54.850Z,83.76
2018-08-06T02:39:23.196Z,83.19
2018-08-06T02:41:51.634Z,83.67
2018-08-06T02:44:20.032Z,84.03
2018-08-06T02:46:48.352Z,83.46
2018-08-06T02:49:16.804Z,83.60
2018-08-06T02:51:45.302Z,83.92
2018-08-06T02:54:13.632Z,84.02
2018-08-06T02:56:42.375Z,84.47
2018-08-06T02:59:10.831Z,84.77
2018-08-06T03:01:39.235Z,85.10
2018-08-06T03:04:07.736Z,85.31
2018-08-06T03:06:37.104Z,85.60
2018-08-06T03:09:09.744Z,85.07
2018-08-06T03:11:38.212Z,85.96
2018-08-06T03:14:06.638Z,85.46
2018-08-06T03:16:35.887Z,86.30
2018-08-06T03:19:04.382Z,86.58
2018-08-06T03:21:32.821Z,86.84
2018-08-06T03:24:01.209Z,86.99
2018-08-06T03:26:29.649Z,87.14
2018-08-06T03:28:58.072Z,86.91
2018-08-06T03:31:26.483Z,86.79
2018-08-06T03:33:54.920Z,87.36
2018-08-06T03:36:23.360Z,87.18
2018-08-06T03:38:51.753Z,86.65
2018-08-06T03:41:20.171Z,86.33
2018-08-06T03:43:48.540Z,86.81
2018-08-06T03:46:18.799Z,86.51
2018-08-06T03:48:47.135Z,86.31
2018-08-06T03:51:16.064Z,86.05
2018-08-06T03:53:44.872Z,86.27
2018-08-06T03:56:19.498Z,85.99
2018-08-06T03:58:50.053Z,87.17
2018-08-06T04:01:18.618Z,87.15
2018-08-06T04:03:48.529Z,86.92
2018-08-06T04:06:21.089Z,86.79
2018-08-06T04:08:49.429Z,86.22
2018-08-06T04:11:17.744Z,86.46
2018-08-06T04:13:46.504Z,86.53
2018-08-06T04:16:16.224Z,87.19
2018-08-06T04:18:44.628Z,86.67
2018-08-06T04:21:13.623Z,86.57
2018-08-06T04:23:42.222Z,87.30
2018-08-06T04:26:11.590Z,87.12
2018-08-06T04:28:40.039Z,87.75
2018-08-06T04:31:08.410Z,87.01
2018-08-06T04:33:36.926Z,87.38
2018-08-06T04:36:05.423Z,87.51
2018-08-06T04:38:33.878Z,87.45
2018-08-06T04:41:02.239Z,87.89
2018-08-06T04:43:30.673Z,87.05
2018-08-06T04:45:59.258Z,86.56
2018-08-06T04:48:27.749Z,87.33
2018-08-06T04:50:56.109Z,86.88
2018-08-06T04:53:27.372Z,87.69
2018-08-06T04:55:57.539Z,86.96
2018-08-06T04:58:25.929Z,87.75
2018-08-06T05:00:55.040Z,86.71
2018-08-06T05:03:23.449Z,85.44
2018-08-06T05:05:51.829Z,85.54
2018-08-06T05:08:20.354Z,86.42
2018-08-06T05:10:48.759Z,87.69
2018-08-06T05:13:17.286Z,86.37
2018-08-06T05:15:45.705Z,85.05
2018-08-06T05:18:14.046Z,86.46
2018-08-06T05:20:42.449Z,85.52
2018-08-06T05:23:11.078Z,85.04
2018-08-06T05:25:40.454Z,84.69
2018-08-06T05:28:08.928Z,86.14
2018-08-06T05:30:37.270Z,85.88
2018-08-06T05:33:05.647Z,85.43
2018-08-06T05:35:34.128Z,85.81
2018-08-06T05:38:02.545Z,84.71
2018-08-06T05:40:30.940Z,83.70
2018-08-06T05:42:59.401Z,83.54
2018-08-06T05:45:27.739Z,82.61
2018-08-06T05:47:56.152Z,82.20
2018-08-06T05:50:24.587Z,81.78
2018-08-06T05:52:52.981Z,82.89
2018-08-06T05:55:21.396Z,81.07
2018-08-06T05:57:49.771Z,80.91
2018-08-06T06:00:19.241Z,79.58
2018-08-06T06:02:48.903Z,81.44
2018-08-06T06:05:17.805Z,80.29
2018-08-06T06:07:46.210Z,77.03
2018-08-06T06:10:15.840Z,74.74
2018-08-06T06:12:44.271Z,70.13
2018-08-06T06:15:14.879Z,69.99
2018-08-06T06:17:43.927Z,67.96
2018-08-06T06:20:12.370Z,66.71
2018-08-06T06:22:40.822Z,67.94
2018-08-06T06:25:11.512Z,66.46
2018-08-06T06:27:39.957Z,65.25
2018-08-06T06:30:10.849Z,63.60
2018-08-06T06:32:39.292Z,60.67
2018-08-06T06:35:07.691Z,61.47
2018-08-06T06:37:36.081Z,59.30
2018-08-06T06:40:05.041Z,59.35
2018-08-06T06:42:33.411Z,58.84
2018-08-06T06:45:01.828Z,59.78
2018-08-06T06:47:30.199Z,60.99
2018-08-06T06:49:58.532Z,57.53
2018-08-06T06:52:26.980Z,57.36
2018-08-06T06:54:55.333Z,57.07
2018-08-06T06:57:23.805Z,57.96
2018-08-06T06:59:52.278Z,57.27
2018-08-06T07:02:20.602Z,58.15
2018-08-06T07:04:49.035Z,58.48
2018-08-06T07:07:17.443Z,56.90
2018-08-06T07:09:45.843Z,56.54
2018-08-06T07:12:14.275Z,56.64
2018-08-06T07:14:42.635Z,56.91
2018-08-06T07:17:11.116Z,57.12
2018-08-06T07:19:39.498Z,54.39
2018-08-06T07:22:07.949Z,54.26
2018-08-06T07:24:36.486Z,54.47
2018-08-06T07:27:04.946Z,51.49
2018-08-06T07:29:33.545Z,51.15
2018-08-06T07:32:01.936Z,51.08
2018-08-06T07:34:30.387Z,50.83
2018-08-06T07:36:58.944Z,51.08
2018-08-06T07:39:27.386Z,50.92
2018-08-06T07:41:55.756Z,52.04
2018-08-06T07:44:24.216Z,52.62
2018-08-06T07:46:52.624Z,54.44
2018-08-06T07:49:23.611Z,52.05
2018-08-06T07:51:52.096Z,50.46
2018-08-06T07:54:20.694Z,49.18
2018-08-06T07:56:49.387Z,50.70
2018-08-06T07:59:17.824Z,50.05
2018-08-06T08:01:46.374Z,48.75
2018-08-06T08:04:15.136Z,48.53
2018-08-06T08:06:43.876Z,49.09
2018-08-06T08:09:12.996Z,48.08
2018-08-06T08:11:41.485Z,47.91
2018-08-06T08:14:14.555Z,49.32
2018-08-06T08:16:42.976Z,48.94
2018-08-06T08:19:11.632Z,49.15
2018-08-06T08:21:40.033Z,50.39
2018-08-06T08:24:08.536Z,48.72
2018-08-06T08:26:36.904Z,48.34
2018-08-06T08:29:05.441Z,51.04
2018-08-06T08:31:34.367Z,49.84
2018-08-06T08:34:02.858Z,51.16
2018-08-06T08:36:33.034Z,49.28
2018-08-06T08:39:01.507Z,50.06
2018-08-06T08:41:29.993Z,49.85
2018-08-06T08:43:58.412Z,49.80
2018-08-06T08:46:26.919Z,48.16
2018-08-06T08:48:55.555Z,49.48
2018-08-06T08:51:24.013Z,50.38
2018-08-06T08:53:53.616Z,51.08
2018-08-06T08:56:22.615Z,49.67
2018-08-06T08:58:51.229Z,49.80
2018-08-06T09:01:19.599Z,51.19
2018-08-06T09:03:48.905Z,47.70
2018-08-06T09:06:17.296Z,47.63
2018-08-06T09:08:45.934Z,49.26
2018-08-06T09:11:14.543Z,48.74
2018-08-06T09:13:42.922Z,48.95
2018-08-06T09:16:11.388Z,49.57
2018-08-06T09:18:39.870Z,46.33
2018-08-06T09:21:09.025Z,47.02
2018-08-06T09:23:37.359Z,47.64
2018-08-06T09:26:05.781Z,47.86
2018-08-06T09:28:34.183Z,48.59
2018-08-06T09:31:02.651Z,47.59
2018-08-06T09:33:31.533Z,48.58
2018-08-06T09:35:59.907Z,46.22
2018-08-06T09:38:28.252Z,46.97
2018-08-06T09:40:56.682Z,47.11
2018-08-06T09:43:25.131Z,48.37
2018-08-06T09:45:53.509Z,47.67
2018-08-06T09:48:21.970Z,46.70
2018-08-06T09:50:51.865Z,46.07
2018-08-06T09:53:20.368Z,44.90
2018-08-06T09:55:49.153Z,46.57
2018-08-06T09:58:17.663Z,46.61
2018-08-06T10:00:51.168Z,43.93
2018-08-06T10:03:22.578Z,45.09
2018-08-06T10:05:51.033Z,43.86
2018-08-06T10:08:19.640Z,46.07
2018-08-06T10:10:48.041Z,44.33
2018-08-06T10:13:16.466Z,43.21
2018-08-06T10:15:45.999Z,43.42
2018-08-06T10:18:14.667Z,42.66
2018-08-06T10:20:43.420Z,43.75
2018-08-06T10:23:12.098Z,42.35
2018-08-06T10:25:41.902Z,42.33
2018-08-06T10:28:10.487Z,43.68
2018-08-06T10:30:38.962Z,43.22
2018-08-06T10:33:08.775Z,42.18
2018-08-06T10:35:37.573Z,43.30
2018-08-06T10:38:06.261Z,43.26
2018-08-06T10:40:34.933Z,42.14
2018-08-06T10:43:03.552Z,40.55
2018-08-06T10:45:32.193Z,40.58
2018-08-06T10:48:00.799Z,41.34
2018-08-06T10:50:29.354Z,41.34
2018-08-06T10:52:57.760Z,41.52
2018-08-06T10:55:26.340Z,40.86
2018-08-06T10:57:54.908Z,40.52
2018-08-06T11:00:24.202Z,40.63
2018-08-06T11:02:52.915Z,39.73
2018-08-06T11:05:21.673Z,40.55
2018-08-06T11:07:50.147Z,39.80
2018-08-06T11:10:20.908Z,38.87
2018-08-06T11:12:49.473Z,38.66
2018-08-06T11:15:26.152Z,38.74
2018-08-06T11:17:54.758Z,38.36
2018-08-06T11:20:23.889Z,39.00
2018-08-06T11:22:52.522Z,38.22
2018-08-06T11:25:22.464Z,39.46
2018-08-06T11:27:51.001Z,38.36
2018-08-06T11:30:20.943Z,38.14
2018-08-06T11:32:50.338Z,37.98
2018-08-06T11:35:18.941Z,37.22
2018-08-06T11:37:47.355Z,39.15
2018-08-06T11:40:16.468Z,38.08
2018-08-06T11:42:45.639Z,37.63
2018-08-06T11:45:16.809Z,38.55
2018-08-06T11:47:45.365Z,36.36
2018-08-06T11:50:13.780Z,37.99
2018-08-06T11:52:42.479Z,37.09
2018-08-06T11:55:11.238Z,36.39
2018-08-06T11:57:39.740Z,36.00
2018-08-06T12:00:18.507Z,35.41
2018-08-06T12:02:47.104Z,35.25
2018-08-06T12:05:15.536Z,35.42
2018-08-06T12:07:44.007Z,33.47
2018-08-06T12:10:14.895Z,33.02
2018-08-06T12:12:44.436Z,32.74
2018-08-06T12:15:12.838Z,35.00
2018-08-06T12:17:41.812Z,32.87
2018-08-06T12:20:12.669Z,34.01
2018-08-06T12:22:42.260Z,32.34
2018-08-06T12:25:11.782Z,32.45
2018-08-06T12:27:40.209Z,32.97
2018-08-06T12:30:11.492Z,32.04
2018-08-06T12:32:39.864Z,30.75
2018-08-06T12:35:08.429Z,31.00
2018-08-06T12:37:36.829Z,30.69
2018-08-06T12:40:07.761Z,32.25
2018-08-06T12:42:36.207Z,30.53
2018-08-06T12:45:05.298Z,30.12
2018-08-06T12:47:33.676Z,30.12
2018-08-06T12:50:02.914Z,30.48
2018-08-06T12:52:31.489Z,31.92
2018-08-06T12:54:59.785Z,29.92
2018-08-06T12:57:28.445Z,29.25
2018-08-06T12:59:56.908Z,30.76
2018-08-06T13:02:25.448Z,29.29
2018-08-06T13:04:53.960Z,29.94
2018-08-06T13:07:22.278Z,30.83
2018-08-06T13:09:50.711Z,31.42
2018-08-06T13:12:19.132Z,30.11
2018-08-06T13:14:47.573Z,30.61
2018-08-06T13:17:17.483Z,29.81
2018-08-06T13:19:45.924Z,30.43
2018-08-06T13:22:14.484Z,29.90
2018-08-06T13:24:42.856Z,30.01
2018-08-06T13:27:11.809Z,28.50
2018-08-06T13:29:40.236Z,28.18
2018-08-06T13:32:08.715Z,29.08
2018-08-06T13:34:37.397Z,30.07
2018-08-06T13:37:05.932Z,28.87
2018-08-06T13:39:34.273Z,29.75
2018-08-06T13:42:02.598Z,29.86
2018-08-06T13:44:31.088Z,30.46
2018-08-06T13:46:59.590Z,31.23
2018-08-06T13:49:27.885Z,31.07
2018-08-06T13:51:56.273Z,27.57
2018-08-06T13:54:24.672Z,28.33
2018-08-06T13:56:53.021Z,29.25
2018-08-06T13:59:24.082Z,29.84
2018-08-06T14:01:52.358Z,29.95
2018-08-06T14:04:21.953Z,30.11
2018-08-06T14:06:50.359Z,29.25
2018-08-06T14:09:18.845Z,29.13
2018-08-06T14:11:47.200Z,29.87
2018-08-06T14:14:15.559Z,29.17
2018-08-06T14:16:43.947Z,28.93
2018-08-06T14:19:12.534Z,30.29
2018-08-06T14:21:40.884Z,30.13
2018-08-06T14:24:09.368Z,30.57
2018-08-06T14:26:39.232Z,29.94
2018-08-06T14:29:07.710Z,29.22
2018-08-06T14:31:36.350Z,29.78
2018-08-06T14:34:04.772Z,30.22
2018-08-06T14:36:33.111Z,30.49
2018-08-06T14:39:01.826Z,29.75
2018-08-06T14:41:30.145Z,29.54
2018-08-06T14:43:58.509Z,31.16
2018-08-06T14:46:26.792Z,29.24
2018-08-06T14:48:55.219Z,30.06
2018-08-06T14:51:23.576Z,30.12
2018-08-06T14:53:52.844Z,30.43
2018-08-06T14:56:21.308Z,29.41
2018-08-06T14:58:49.904Z,29.90
2018-08-06T15:01:18.384Z,29.59
2018-08-06T15:03:46.896Z,29.27
2018-08-06T15:06:15.719Z,30.87
2018-08-06T15:08:44.020Z,29.80
2018-08-06T15:11:12.476Z,30.03
2018-08-06T15:13:40.941Z,29.85
2018-08-06T15:16:09.432Z,30.49
2018-08-06T15:18:37.949Z,29.79
2018-08-06T15:21:06.569Z,29.32
2018-08-06T15:23:34.994Z,29.05
2018-08-06T15:26:04.220Z,29.33
2018-08-06T15:28:32.688Z,29.32
2018-08-06T15:31:01.171Z,30.19
2018-08-06T15:33:29.485Z,28.99
2018-08-06T15:35:57.804Z,29.98
2018-08-06T15:38:26.244Z,29.60
2018-08-06T15:40:54.901Z,29.57
2018-08-06T15:43:23.452Z,29.25
2018-08-06T15:45:51.814Z,29.49
2018-08-06T15:48:21.186Z,29.88
2018-08-06T15:50:49.660Z,29.71
2018-08-06T15:53:17.954Z,29.50
2018-08-06T15:55:46.263Z,29.28
2018-08-06T15:58:14.714Z,29.64
2018-08-06T16:00:43.113Z,29.28
2018-08-06T16:03:11.518Z,29.61
2018-08-06T16:05:39.825Z,30.70
2018-08-06T16:08:08.205Z,29.53
2018-08-06T16:10:36.539Z,30.06
2018-08-06T16:13:04.915Z,30.02
2018-08-06T16:15:33.272Z,29.71
2018-08-06T16:18:01.650Z,29.22
2018-08-06T16:20:30.004Z,29.69
2018-08-06T16:22:58.618Z,29.88
2018-08-06T16:25:26.948Z,29.91
2018-08-06T16:27:55.276Z,30.22
2018-08-06T16:30:25.109Z,29.95
2018-08-06T16:32:54.121Z,30.76
2018-08-06T16:35:23.918Z,30.11
2018-08-06T16:37:54.805Z,30.15
2018-08-06T16:40:23.113Z,30.35
2018-08-06T16:42:51.849Z,31.10
2018-08-06T16:45:20.328Z,30.80
2018-08-06T16:47:48.821Z,30.21
2018-08-06T16:50:17.869Z,30.61
2018-08-06T16:52:46.469Z,30.78
2018-08-06T16:55:14.846Z,31.27
2018-08-06T16:57:43.234Z,30.24
2018-08-06T17:00:16.328Z,29.68
2018-08-06T17:02:45.004Z,30.89
2018-08-06T17:05:14.001Z,30.93
2018-08-06T17:07:43.568Z,30.77
2018-08-06T17:10:14.932Z,30.77
2018-08-06T17:12:44.885Z,31.63
2018-08-06T17:15:14.743Z,30.97
2018-08-06T17:17:43.358Z,31.17
2018-08-06T17:20:15.775Z,31.39
2018-08-06T17:22:45.548Z,31.99
2018-08-06T17:25:14.144Z,31.33
2018-08-06T17:27:42.835Z,31.58
2018-08-06T17:30:12.233Z,31.62
2018-08-06T17:32:40.594Z,31.31
2018-08-06T17:35:10.505Z,31.27
2018-08-06T17:37:38.913Z,30.81
2018-08-06T17:40:13.853Z,31.72
2018-08-06T17:42:42.280Z,30.60
2018-08-06T17:45:14.037Z,30.90
2018-08-06T17:47:42.445Z,30.26
2018-08-06T17:50:13.067Z,31.05
2018-08-06T17:52:41.578Z,31.65
2018-08-06T17:55:09.989Z,31.04
2018-08-06T17:57:38.465Z,30.83
2018-08-06T18:00:08.153Z,31.95
2018-08-06T18:02:38.090Z,30.41
2018-08-06T18:05:08.236Z,31.51
2018-08-06T18:07:36.623Z,30.88
2018-08-06T18:10:06.412Z,31.99
2018-08-06T18:12:34.790Z,31.79
2018-08-06T18:15:03.885Z,31.48
2018-08-06T18:17:32.802Z,31.35
2018-08-06T18:20:01.124Z,31.38
2018-08-06T18:22:29.401Z,31.69
2018-08-06T18:24:57.895Z,31.44
2018-08-06T18:27:27.109Z,32.38
2018-08-06T18:29:55.765Z,32.46
2018-08-06T18:32:24.125Z,32.26
2018-08-06T18:34:52.462Z,31.82
2018-08-06T18:37:21.528Z,32.58
2018-08-06T18:39:49.860Z,32.98
2018-08-06T18:42:19.041Z,32.83
2018-08-06T18:44:48.393Z,33.31
2018-08-06T18:47:18.668Z,33.58
2018-08-06T18:49:47.073Z,34.08
2018-08-06T18:52:15.444Z,33.57
2018-08-06T18:54:43.987Z,33.00
2018-08-06T18:57:13.560Z,34.14
2018-08-06T18:59:42.927Z,33.72
2018-08-06T19:02:12.220Z,34.01
2018-08-06T19:04:41.605Z,34.40
2018-08-06T19:07:10.893Z,35.24
2018-08-06T19:09:40.062Z,34.93
2018-08-06T19:12:14.477Z,35.10
2018-08-06T19:14:43.861Z,35.51
2018-08-06T19:17:13.094Z,34.79
2018-08-06T19:19:42.396Z,34.52
2018-08-06T19:22:11.386Z,35.48
2018-08-06T19:24:45.661Z,35.77
2018-08-06T19:27:14.796Z,35.70
2018-08-06T19:29:43.222Z,35.92
2018-08-06T19:32:13.221Z,35.47
2018-08-06T19:34:42.528Z,35.04
2018-08-06T19:37:16.691Z,36.22
2018-08-06T19:39:46.812Z,36.44
2018-08-06T19:42:16.047Z,36.42
2018-08-06T19:44:45.036Z,36.64
2018-08-06T19:47:17.191Z,36.84
2018-08-06T19:49:51.564Z,36.14
2018-08-06T19:52:21.049Z,36.41
2018-08-06T19:54:50.259Z,37.25
2018-08-06T19:57:19.310Z,37.21
2018-08-06T19:59:47.692Z,37.27
2018-08-06T20:02:16.989Z,37.26
2018-08-06T20:04:46.072Z,36.98
2018-08-06T20:07:15.302Z,37.53
2018-08-06T20:09:44.124Z,37.50
2018-08-06T20:12:13.156Z,37.18
2018-08-06T20:14:42.071Z,37.94
2018-08-06T20:17:11.128Z,38.26
2018-08-06T20:19:40.250Z,37.92
2018-08-06T20:22:15.825Z,38.35
2018-08-06T20:24:47.200Z,40.35
2018-08-06T20:27:17.789Z,39.87
2018-08-06T20:29:47.166Z,38.34
2018-08-06T20:32:16.212Z,38.70
2018-08-06T20:34:46.052Z,39.05
2018-08-06T20:37:15.296Z,39.34
2018-08-06T20:39:43.781Z,38.86
2018-08-06T20:42:13.148Z,38.95
2018-08-06T20:44:42.314Z,39.14
2018-08-06T20:47:11.477Z,39.15
2018-08-06T20:49:40.618Z,40.38
2018-08-06T20:52:09.948Z,39.52
2018-08-06T20:54:38.588Z,39.54
2018-08-06T20:57:08.084Z,39.91
2018-08-06T20:59:37.370Z,39.39
2018-08-06T21:02:06.619Z,39.57
2018-08-06T21:04:35.691Z,39.43
2018-08-06T21:07:05.991Z,40.86
2018-08-06T21:09:36.048Z,39.78
2018-08-06T21:12:06.374Z,40.48
2018-08-06T21:14:35.433Z,40.54
2018-08-06T21:17:04.813Z,40.14
2018-08-06T21:19:34.240Z,41.33
2018-08-06T21:22:03.928Z,42.19
2018-08-06T21:24:33.366Z,41.22
2018-08-06T21:27:02.421Z,41.21
2018-08-06T21:29:32.921Z,40.87
2018-08-06T21:32:06.061Z,41.45
2018-08-06T21:34:35.306Z,41.57
2018-08-06T21:37:04.510Z,41.63
2018-08-06T21:39:34.509Z,40.44
2018-08-06T21:42:03.857Z,41.08
2018-08-06T21:44:33.260Z,41.17
2018-08-06T21:47:04.432Z,40.82
2018-08-06T21:49:33.718Z,40.95
2018-08-06T21:52:03.222Z,40.65
2018-08-06T21:54:35.848Z,40.88
2018-08-06T21:57:05.269Z,41.47
2018-08-06T21:59:35.009Z,41.37
2018-08-06T22:02:03.420Z,41.94
2018-08-06T22:04:33.224Z,41.23
2018-08-06T22:07:03.585Z,41.68
2018-08-06T22:09:33.057Z,41.09
2018-08-06T22:12:04.075Z,41.63
2018-08-06T22:14:33.157Z,41.61
2018-08-06T22:17:02.391Z,41.55
2018-08-06T22:19:31.291Z,41.50
2018-08-06T22:22:00.396Z,43.07
2018-08-06T22:24:29.576Z,41.41
2018-08-06T22:26:58.829Z,41.04
2018-08-06T22:29:28.180Z,41.10
2018-08-06T22:31:56.612Z,40.88
2018-08-06T22:34:24.953Z,41.00
2018-08-06T22:36:53.373Z,41.32
2018-08-06T22:39:21.770Z,41.66
2018-08-06T22:41:50.153Z,40.93
2018-08-06T22:44:18.544Z,41.09
2018-08-06T22:46:46.913Z,41.44
2018-08-06T22:49:15.294Z,41.96
2018-08-06T22:51:43.675Z,41.07
2018-08-06T22:54:12.046Z,40.79
2018-08-06T22:56:40.342Z,40.56
2018-08-06T22:59:08.673Z,40.00
2018-08-06T23:01:37.849Z,40.85
2018-08-06T23:04:06.286Z,40.31
2018-08-06T23:06:34.672Z,41.07
2018-08-06T23:09:03.076Z,40.10
2018-08-06T23:11:31.419Z,40.76
2018-08-06T23:13:59.736Z,40.87
2018-08-06T23:16:28.084Z,40.91
2018-08-06T23:18:56.534Z,41.48
2018-08-06T23:21:24.886Z,41.52
2018-08-06T23:23:53.191Z,41.44
2018-08-06T23:26:21.861Z,41.41
2018-08-06T23:28:50.183Z,40.92
2018-08-06T23:31:18.518Z,41.25
2018-08-06T23:33:46.909Z,41.75
2018-08-06T23:36:15.269Z,40.30
2018-08-06T23:38:43.619Z,40.16
2018-08-06T23:41:12.032Z,41.45
2018-08-06T23:43:40.345Z,41.76
2018-08-06T23:46:08.700Z,41.06
2018-08-06T23:48:37.079Z,41.56
2018-08-06T23:51:05.480Z,41.32
2018-08-06T23:53:33.926Z,41.08
2018-08-06T23:56:02.261Z,42.00
2018-08-06T23:59:01.288Z,40.86
